Time;durP1;ratioP1;P1;durP2;ratioP2;P2;SDS_P1;SDS_P2;PMS_P1;PMS_P2;Temp;Humidity;BMP_temperature;BMP_pressure;BME280_temperature;BME280_humidity;BME280_pressure;Samples;Min_cycle;Max_cycle;Signal;HPM_P1;HPM_P2
2022/10/18 00:00:40;;;;;;;56.45;36.17;;;;;;;;;;6232143;28;20050;-67
2022/10/18 00:03:42;;;;;;;59.40;38.33;;;;;;;;;;6231188;28;20057;-66
2022/10/18 00:06:43;;;;;;;59.38;39.20;;;;;;;;;;6230934;28;20045;-67
2022/10/18 00:09:45;;;;;;;58.20;37.10;;;;;;;;;;6234870;28;20131;-65
2022/10/18 00:12:46;;;;;;;59.10;36.42;;;;;;;;;;6230954;28;20049;-66
2022/10/18 00:15:51;;;;;;;56.05;35.17;;;;;;;;;;6232138;28;20100;-66
2022/10/18 00:18:52;;;;;;;52.75;35.72;;;;;;;;;;6230002;28;20045;-66
2022/10/18 00:21:54;;;;;;;53.92;35.28;;;;;;;;;;6233112;28;20103;-67
2022/10/18 00:24:55;;;;;;;52.35;34.75;;;;;;;;;;6235683;28;20096;-65
2022/10/18 00:27:57;;;;;;;53.92;34.83;;;;;;;;;;6235318;28;20119;-67
2022/10/18 00:31:09;;;;;;;52.35;36.08;;;;;;;;;;6231566;28;20278;-66
2022/10/18 00:34:12;;;;;;;48.28;32.38;;;;;;;;;;6232348;28;20099;-67
2022/10/18 00:37:14;;;;;;;53.53;35.33;;;;;;;;;;6231063;28;20046;-67
2022/10/18 00:40:16;;;;;;;53.15;34.70;;;;;;;;;;6233458;28;20046;-66
2022/10/18 00:43:18;;;;;;;48.33;32.88;;;;;;;;;;6230765;28;20124;-66
2022/10/18 00:46:21;;;;;;;51.92;33.75;;;;;;;;;;6228137;28;20334;-66
2022/10/18 00:49:27;;;;;;;50.00;33.78;;;;;;;;;;6233272;28;20042;-67
2022/10/18 00:52:32;;;;;;;51.22;34.17;;;;;;;;;;6230548;28;20053;-67
2022/10/18 00:55:34;;;;;;;47.15;33.53;;;;;;;;;;6233780;28;20072;-66
2022/10/18 00:58:36;;;;;;;52.03;33.90;;;;;;;;;;6231133;28;20057;-67
2022/10/18 01:01:39;;;;;;;45.83;32.55;;;;;;;;;;6233728;28;20061;-67
2022/10/18 01:04:40;;;;;;;49.00;32.97;;;;;;;;;;6231291;28;20120;-66
2022/10/18 01:07:56;;;;;;;52.58;33.33;;;;;;;;;;6232038;28;20447;-66
2022/10/18 01:11:07;;;;;;;50.95;33.53;;;;;;;;;;6230654;28;20088;-67
2022/10/18 01:14:18;;;;;;;47.53;32.00;;;;;;;;;;6231978;28;20062;-67
2022/10/18 01:17:27;;;;;;;49.97;32.38;;;;;;;;;;6228952;28;20058;-67
2022/10/18 01:20:58;;;;;;;47.65;32.38;;;;;;;;;;6234450;28;20045;-64
2022/10/18 01:24:31;;;;;;;52.05;33.38;;;;;;;;;;6232439;28;20081;-67
2022/10/18 01:27:44;;;;;;;49.25;32.42;;;;;;;;;;6230450;28;20084;-68
2022/10/18 01:30:52;;;;;;;46.05;32.25;;;;;;;;;;6231294;28;20045;-67
2022/10/18 01:33:58;;;;;;;52.08;32.95;;;;;;;;;;6230796;28;20392;-64
2022/10/18 01:37:01;;;;;;;48.72;32.40;;;;;;;;;;6230399;28;20054;-67
2022/10/18 01:40:06;;;;;;;48.55;32.67;;;;;;;;;;6230911;28;20057;-65
2022/10/18 01:43:09;;;;;;;47.80;32.22;;;;;;;;;;6231222;28;20117;-66
2022/10/18 01:46:13;;;;;;;50.07;34.13;;;;;;;;;;6229583;28;20099;-65
2022/10/18 01:49:15;;;;;;;47.75;32.85;;;;;;;;;;6230056;28;20053;-65
2022/10/18 01:52:16;;;;;;;49.70;33.05;;;;;;;;;;6230258;28;20064;-65
2022/10/18 01:55:20;;;;;;;44.38;31.67;;;;;;;;;;6228748;28;20053;-66
2022/10/18 01:58:27;;;;;;;51.28;33.88;;;;;;;;;;6229162;28;20364;-63
2022/10/18 02:01:35;;;;;;;46.70;32.03;;;;;;;;;;6229081;28;20065;-64
2022/10/18 02:04:41;;;;;;;47.40;33.30;;;;;;;;;;6227490;28;20496;-68
2022/10/18 02:07:47;;;;;;;51.45;33.35;;;;;;;;;;6230987;28;20053;-67
2022/10/18 02:10:51;;;;;;;52.25;33.15;;;;;;;;;;6229495;28;20112;-68
2022/10/18 02:13:55;;;;;;;46.13;33.05;;;;;;;;;;6228445;28;20058;-68
2022/10/18 02:17:01;;;;;;;50.85;34.47;;;;;;;;;;6233098;28;20228;-66
2022/10/18 02:20:03;;;;;;;44.58;32.28;;;;;;;;;;6233314;28;20342;-66
2022/10/18 02:23:06;;;;;;;50.35;31.80;;;;;;;;;;6236272;28;20041;-66
2022/10/18 02:26:08;;;;;;;43.63;31.17;;;;;;;;;;6231849;28;20108;-66
2022/10/18 02:29:10;;;;;;;52.58;33.28;;;;;;;;;;6235131;28;20046;-65
2022/10/18 02:32:18;;;;;;;49.17;32.70;;;;;;;;;;6234065;28;20131;-66
2022/10/18 02:35:24;;;;;;;47.13;31.83;;;;;;;;;;6234225;28;20054;-66
2022/10/18 02:38:27;;;;;;;47.20;32.65;;;;;;;;;;6233183;28;20054;-65
2022/10/18 02:41:30;;;;;;;51.25;34.38;;;;;;;;;;6233975;28;20045;-67
2022/10/18 02:44:32;;;;;;;;;;;;;;;;;;6235791;28;20107;-66
2022/10/18 02:47:35;;;;;;;49.67;32.70;;;;;;;;;;6235139;28;20019;-66
2022/10/18 02:50:36;;;;;;;47.97;32.77;;;;;;;;;;6231339;28;20057;-65
2022/10/18 02:53:38;;;;;;;44.53;31.88;;;;;;;;;;6228366;28;20479;-65
2022/10/18 02:56:39;;;;;;;46.67;31.55;;;;;;;;;;6227529;28;20096;-67
2022/10/18 02:59:41;;;;;;;50.80;33.03;;;;;;;;;;6228486;28;20121;-65
2022/10/18 03:02:44;;;;;;;48.75;32.85;;;;;;;;;;6226707;28;20045;-66
2022/10/18 03:05:49;;;;;;;47.08;31.38;;;;;;;;;;6209281;28;20052;-66
2022/10/18 03:08:50;;;;;;;46.53;31.75;;;;;;;;;;6227834;28;20054;-65
2022/10/18 03:11:52;;;;;;;50.38;33.28;;;;;;;;;;6229364;28;20117;-65
2022/10/18 03:14:53;;;;;;;50.17;33.13;;;;;;;;;;6226969;28;20152;-66
2022/10/18 03:17:56;;;;;;;47.70;33.33;;;;;;;;;;6227010;28;20127;-66
2022/10/18 03:20:58;;;;;;;46.97;32.63;;;;;;;;;;6227566;28;20069;-63
2022/10/18 03:23:59;;;;;;;46.85;31.83;;;;;;;;;;6227979;28;20364;-66
2022/10/18 03:27:01;;;;;;;50.70;33.97;;;;;;;;;;6228729;28;20406;-65
2022/10/18 03:30:04;;;;;;;55.20;34.53;;;;;;;;;;6227551;28;20046;-66
2022/10/18 03:33:07;;;;;;;55.35;33.58;;;;;;;;;;6229351;28;20296;-66
2022/10/18 03:36:09;;;;;;;50.85;32.63;;;;;;;;;;6226992;28;20337;-66
2022/10/18 03:39:11;;;;;;;52.45;32.72;;;;;;;;;;6227463;28;20049;-66
2022/10/18 03:42:13;;;;;;;47.70;33.22;;;;;;;;;;6229573;28;20053;-65
2022/10/18 03:45:15;;;;;;;53.50;33.40;;;;;;;;;;6227649;28;20045;-66
2022/10/18 03:48:18;;;;;;;53.17;35.08;;;;;;;;;;6228307;28;20061;-63
2022/10/18 03:51:19;;;;;;;47.80;34.33;;;;;;;;;;6226361;28;20057;-66
2022/10/18 03:54:21;;;;;;;50.25;32.92;;;;;;;;;;6230606;28;20855;-65
2022/10/18 03:57:22;;;;;;;48.92;33.67;;;;;;;;;;6228515;28;20395;-66
2022/10/18 04:00:24;;;;;;;52.10;34.63;;;;;;;;;;6226297;28;20321;-64
2022/10/18 04:03:27;;;;;;;50.72;32.88;;;;;;;;;;6229677;28;20109;-67
2022/10/18 04:06:29;;;;;;;51.72;33.95;;;;;;;;;;6224307;28;20103;-65
2022/10/18 04:09:30;;;;;;;49.63;34.13;;;;;;;;;;6227060;28;20735;-66
2022/10/18 04:12:32;;;;;;;46.17;32.00;;;;;;;;;;6230303;28;20058;-66
2022/10/18 04:15:34;;;;;;;42.22;30.27;;;;;;;;;;6228273;28;20096;-66
2022/10/18 04:18:38;;;;;;;43.72;28.20;;;;;;;;;;6228204;28;20046;-66
2022/10/18 04:21:40;;;;;;;43.20;28.85;;;;;;;;;;6226736;28;20724;-65
2022/10/18 04:24:42;;;;;;;37.50;27.88;;;;;;;;;;6225838;28;20049;-65
2022/10/18 04:27:44;;;;;;;38.65;27.55;;;;;;;;;;6227192;28;20061;-70
2022/10/18 04:30:50;;;;;;;37.97;26.65;;;;;;;;;;6227162;28;20057;-64
2022/10/18 04:33:53;;;;;;;36.67;25.52;;;;;;;;;;6225728;28;20053;-67
2022/10/18 04:36:54;;;;;;;39.53;25.90;;;;;;;;;;6225410;28;20095;-67
2022/10/18 04:39:56;;;;;;;41.50;25.55;;;;;;;;;;6226218;28;20069;-67
2022/10/18 04:42:58;;;;;;;38.67;27.50;;;;;;;;;;6228551;28;20045;-68
2022/10/18 04:45:59;;;;;;;41.17;27.65;;;;;;;;;;6231919;28;20347;-64
2022/10/18 04:49:02;;;;;;;36.67;27.00;;;;;;;;;;6231325;28;20238;-66
2022/10/18 04:52:04;;;;;;;35.65;26.38;;;;;;;;;;6230136;28;20045;-66
2022/10/18 04:55:07;;;;;;;36.95;25.70;;;;;;;;;;6230489;28;20046;-64
2022/10/18 04:58:08;;;;;;;39.97;26.63;;;;;;;;;;6230265;28;20041;-66
2022/10/18 05:01:10;;;;;;;38.40;25.80;;;;;;;;;;6230791;28;20122;-66
2022/10/18 05:04:13;;;;;;;38.05;25.25;;;;;;;;;;6234185;28;20069;-66
2022/10/18 05:07:15;;;;;;;34.25;24.48;;;;;;;;;;6229970;28;20100;-66
2022/10/18 05:10:16;;;;;;;36.70;24.65;;;;;;;;;;6235167;28;20045;-66
2022/10/18 05:13:18;;;;;;;35.55;25.75;;;;;;;;;;6233008;28;20072;-65
2022/10/18 05:16:20;;;;;;;37.85;25.17;;;;;;;;;;6231513;28;20067;-66
2022/10/18 05:19:23;;;;;;;35.30;25.30;;;;;;;;;;6231241;28;20061;-63
2022/10/18 05:22:24;;;;;;;36.80;24.73;;;;;;;;;;6227975;28;20338;-65
2022/10/18 05:25:26;;;;;;;34.88;24.58;;;;;;;;;;6228712;28;21243;-65
2022/10/18 05:28:28;;;;;;;35.20;24.63;;;;;;;;;;6232043;28;20065;-65
2022/10/18 05:31:29;;;;;;;33.17;23.95;;;;;;;;;;6227720;28;20068;-65
2022/10/18 05:34:32;;;;;;;32.78;23.00;;;;;;;;;;6228446;28;20068;-65
2022/10/18 05:37:34;;;;;;;37.78;24.70;;;;;;;;;;6233122;28;20042;-65
2022/10/18 05:40:38;;;;;;;35.83;24.33;;;;;;;;;;6228744;28;20072;-65
2022/10/18 05:43:40;;;;;;;31.88;24.75;;;;;;;;;;6228305;28;20262;-65
2022/10/18 05:46:41;;;;;;;34.08;23.17;;;;;;;;;;6230645;28;20104;-66
2022/10/18 05:49:44;;;;;;;37.80;23.58;;;;;;;;;;6230925;28;20061;-66
2022/10/18 05:52:46;;;;;;;35.40;25.87;;;;;;;;;;6228130;28;20384;-63
2022/10/18 05:55:47;;;;;;;35.95;24.98;;;;;;;;;;6230354;28;21220;-63
2022/10/18 05:58:50;;;;;;;32.83;24.55;;;;;;;;;;6227418;28;20119;-64
2022/10/18 06:01:52;;;;;;;36.78;23.42;;;;;;;;;;6222991;28;20061;-64
2022/10/18 06:04:55;;;;;;;41.90;23.65;;;;;;;;;;6229387;28;20060;-63
2022/10/18 06:07:57;;;;;;;36.23;24.80;;;;;;;;;;6229108;28;20065;-63
2022/10/18 06:10:58;;;;;;;33.78;22.75;;;;;;;;;;6228223;28;20464;-63
2022/10/18 06:14:00;;;;;;;35.03;24.85;;;;;;;;;;6228249;28;20148;-64
2022/10/18 06:17:02;;;;;;;32.75;23.17;;;;;;;;;;6226159;28;21434;-63
2022/10/18 06:20:07;;;;;;;41.30;25.65;;;;;;;;;;6227346;28;20127;-64
2022/10/18 06:23:08;;;;;;;39.33;24.05;;;;;;;;;;6225553;28;20052;-64
2022/10/18 06:26:11;;;;;;;34.88;24.58;;;;;;;;;;6226797;28;20080;-64
2022/10/18 06:29:13;;;;;;;33.92;24.13;;;;;;;;;;6226140;28;20057;-65
2022/10/18 06:32:15;;;;;;;32.35;23.00;;;;;;;;;;6225323;28;20129;-64
2022/10/18 06:35:18;;;;;;;34.20;22.98;;;;;;;;;;6226809;28;20061;-64
2022/10/18 06:38:19;;;;;;;32.17;21.43;;;;;;;;;;6227604;28;20116;-63
2022/10/18 06:41:21;;;;;;;31.20;21.67;;;;;;;;;;6228331;28;20521;-64
2022/10/18 06:44:22;;;;;;;33.33;22.17;;;;;;;;;;6226683;28;20096;-64
2022/10/18 06:47:24;;;;;;;29.80;21.27;;;;;;;;;;6228472;28;20107;-64
2022/10/18 06:50:27;;;;;;;30.00;20.58;;;;;;;;;;6226928;28;20322;-63
2022/10/18 06:53:30;;;;;;;32.27;20.33;;;;;;;;;;6230417;28;20045;-63
2022/10/18 06:56:32;;;;;;;33.55;22.20;;;;;;;;;;6227070;28;20511;-64
2022/10/18 06:59:34;;;;;;;32.85;20.42;;;;;;;;;;6226523;28;20273;-63
2022/10/18 07:02:36;;;;;;;29.27;21.60;;;;;;;;;;6228320;28;20112;-63
2022/10/18 07:05:39;;;;;;;29.38;20.45;;;;;;;;;;6225993;28;20053;-63
2022/10/18 07:08:41;;;;;;;26.67;19.45;;;;;;;;;;6227579;28;20152;-64
2022/10/18 07:11:42;;;;;;;26.75;18.60;;;;;;;;;;6226458;28;20125;-63
2022/10/18 07:14:45;;;;;;;25.38;18.83;;;;;;;;;;6226610;28;20092;-63
2022/10/18 07:17:46;;;;;;;27.85;19.27;;;;;;;;;;6224471;28;20101;-64
2022/10/18 07:20:49;;;;;;;24.20;18.70;;;;;;;;;;6225918;28;20145;-63
2022/10/18 07:23:52;;;;;;;26.65;19.25;;;;;;;;;;6227886;28;20104;-64
2022/10/18 07:26:54;;;;;;;26.95;19.80;;;;;;;;;;6228097;28;20046;-63
2022/10/18 07:29:55;;;;;;;36.78;23.55;;;;;;;;;;6229311;28;20053;-63
2022/10/18 07:32:57;;;;;;;30.98;20.42;;;;;;;;;;6227030;28;20057;-65
2022/10/18 07:36:03;;;;;;;40.33;23.90;;;;;;;;;;6225979;28;20065;-63
2022/10/18 07:39:05;;;;;;;35.83;23.73;;;;;;;;;;6226054;28;20058;-63
2022/10/18 07:42:07;;;;;;;38.92;26.85;;;;;;;;;;6225873;28;20061;-62
2022/10/18 07:45:11;;;;;;;41.10;28.48;;;;;;;;;;6226542;28;20049;-63
2022/10/18 07:48:12;;;;;;;36.53;25.52;;;;;;;;;;6224575;28;20104;-63
2022/10/18 07:51:16;;;;;;;38.75;26.80;;;;;;;;;;6227894;28;20054;-63
2022/10/18 07:54:17;;;;;;;43.95;29.13;;;;;;;;;;6224911;28;20053;-63
2022/10/18 07:57:43;;;;;;;43.03;26.50;;;;;;;;;;6226468;28;20058;-64
2022/10/18 08:00:45;;;;;;;38.28;25.67;;;;;;;;;;6228570;28;20053;-63
2022/10/18 08:03:47;;;;;;;45.97;29.23;;;;;;;;;;6228213;28;20115;-62
2022/10/18 08:06:50;;;;;;;33.40;24.55;;;;;;;;;;6225398;28;20053;-63
2022/10/18 08:09:51;;;;;;;31.15;21.80;;;;;;;;;;6225659;28;20072;-64
2022/10/18 08:12:53;;;;;;;31.15;22.08;;;;;;;;;;6234315;28;20281;-63
2022/10/18 08:15:59;;;;;;;30.80;20.88;;;;;;;;;;6227537;28;20317;-62
2022/10/18 08:19:01;;;;;;;30.20;21.75;;;;;;;;;;6231748;28;20091;-63
2022/10/18 08:22:04;;;;;;;27.40;19.20;;;;;;;;;;6230943;28;20046;-63
2022/10/18 08:25:07;;;;;;;25.52;18.17;;;;;;;;;;6228892;28;20052;-62
2022/10/18 08:28:08;;;;;;;23.10;17.35;;;;;;;;;;6231281;28;20050;-63
2022/10/18 08:31:12;;;;;;;21.90;14.65;;;;;;;;;;6230332;28;20269;-64
2022/10/18 08:34:14;;;;;;;22.23;17.13;;;;;;;;;;6231280;28;20107;-63
2022/10/18 08:37:16;;;;;;;23.10;15.95;;;;;;;;;;6229155;28;20307;-63
2022/10/18 08:40:19;;;;;;;20.27;15.00;;;;;;;;;;6228010;28;20068;-64
2022/10/18 08:43:26;;;;;;;20.95;16.42;;;;;;;;;;6233408;28;20046;-63
2022/10/18 08:46:28;;;;;;;24.95;16.42;;;;;;;;;;6229814;28;20310;-63
2022/10/18 08:49:32;;;;;;;21.67;15.95;;;;;;;;;;6231791;28;20318;-63
2022/10/18 08:52:42;;;;;;;21.70;16.23;;;;;;;;;;6231804;28;20050;-64
2022/10/18 08:55:47;;;;;;;20.25;15.10;;;;;;;;;;6229201;28;20054;-63
2022/10/18 08:58:49;;;;;;;24.80;16.80;;;;;;;;;;6227909;28;20056;-63
2022/10/18 09:01:57;;;;;;;21.33;15.07;;;;;;;;;;6231555;28;20061;-63
2022/10/18 09:05:04;;;;;;;24.73;16.42;;;;;;;;;;6233168;28;20144;-64
2022/10/18 09:08:38;;;;;;;20.27;15.27;;;;;;;;;;6230461;28;20057;-63
2022/10/18 09:11:47;;;;;;;21.60;14.73;;;;;;;;;;6229370;28;20112;-65
2022/10/18 09:15:01;;;;;;;16.23;12.60;;;;;;;;;;6232497;28;20073;-64
2022/10/18 09:18:07;;;;;;;;;;;;;;;;;;6230539;28;20050;-64
2022/10/18 09:21:16;;;;;;;18.02;14.27;;;;;;;;;;6230138;28;20264;-65
2022/10/18 09:24:25;;;;;;;17.73;12.88;;;;;;;;;;6227277;28;20050;-64
2022/10/18 09:27:35;;;;;;;17.35;12.57;;;;;;;;;;6228269;28;20058;-64
2022/10/18 09:30:46;;;;;;;17.17;14.15;;;;;;;;;;6232774;28;20050;-64
2022/10/18 09:33:52;;;;;;;17.60;14.00;;;;;;;;;;6230224;28;20050;-64
2022/10/18 09:36:54;;;;;;;16.65;12.68;;;;;;;;;;6230236;28;20149;-64
2022/10/18 09:40:04;;;;;;;17.55;13.88;;;;;;;;;;6228515;28;20411;-63
2022/10/18 09:43:11;;;;;;;15.73;13.55;;;;;;;;;;6228297;28;20053;-64
2022/10/18 09:46:13;;;;;;;13.68;12.27;;;;;;;;;;6226814;28;20330;-64
2022/10/18 09:49:17;;;;;;;18.08;12.98;;;;;;;;;;6231383;28;20416;-64
2022/10/18 09:52:21;;;;;;;15.55;12.93;;;;;;;;;;6228633;28;20050;-64
2022/10/18 09:55:27;;;;;;;14.82;9.95;;;;;;;;;;6227601;28;20064;-65
2022/10/18 09:58:40;;;;;;;14.95;13.20;;;;;;;;;;6229955;28;20077;-64
2022/10/18 10:01:42;;;;;;;16.40;12.57;;;;;;;;;;6229979;28;20065;-64
2022/10/18 10:04:44;;;;;;;;;;;;;;;;;;6228151;28;20317;-63
2022/10/18 10:07:47;;;;;;;17.80;14.50;;;;;;;;;;6228068;28;19917;-65
2022/10/18 10:10:50;;;;;;;17.38;13.02;;;;;;;;;;6228812;28;20046;-64
2022/10/18 10:13:51;;;;;;;16.48;12.80;;;;;;;;;;6228240;28;20313;-64
2022/10/18 10:16:55;;;;;;;15.38;12.30;;;;;;;;;;6228894;28;20049;-64
2022/10/18 10:19:59;;;;;;;14.48;12.98;;;;;;;;;;6224689;28;20234;-63
2022/10/18 10:23:06;;;;;;;12.90;11.50;;;;;;;;;;6226779;28;20222;-65
2022/10/18 10:26:21;;;;;;;20.88;17.42;;;;;;;;;;6224247;28;20318;-65
2022/10/18 10:29:55;;;;;;;19.52;14.10;;;;;;;;;;6225642;28;20057;-65
2022/10/18 10:32:57;;;;;;;19.75;17.35;;;;;;;;;;6143303;28;20059;-64
2022/10/18 10:36:00;;;;;;;20.85;18.33;;;;;;;;;;6149007;28;20206;-65
2022/10/18 10:39:06;;;;;;;18.38;16.35;;;;;;;;;;6144157;28;20934;-63
2022/10/18 10:42:13;;;;;;;19.23;17.10;;;;;;;;;;6148864;28;20055;-65
2022/10/18 10:45:15;;;;;;;20.80;18.40;;;;;;;;;;6145134;28;20067;-64
2022/10/18 10:48:18;;;;;;;11.93;10.60;;;;;;;;;;6143292;28;20051;-63
2022/10/18 10:51:29;;;;;;;13.02;11.57;;;;;;;;;;6143006;28;20051;-63
2022/10/18 10:54:34;;;;;;;17.00;13.07;;;;;;;;;;6146992;28;20964;-65
2022/10/18 10:57:38;;;;;;;17.20;15.35;;;;;;;;;;6143336;28;20957;-65
2022/10/18 11:00:42;;;;;;;20.55;18.35;;;;;;;;;;6145026;28;20043;-65
2022/10/18 11:03:46;;;;;;;20.13;14.05;;;;;;;;;;6148405;28;20075;-65
2022/10/18 11:06:53;;;;;;;18.48;16.38;;;;;;;;;;6146192;28;20055;-64
2022/10/18 11:09:58;;;;;;;22.45;20.20;;;;;;;;;;6229198;28;20072;-65
2022/10/18 11:13:22;;;;;;;22.23;17.85;;;;;;;;;;6228251;28;20048;-64
2022/10/18 11:16:29;;;;;;;24.90;20.58;;;;;;;;;;6225225;28;20111;-65
2022/10/18 11:19:37;;;;;;;17.88;15.95;;;;;;;;;;6226652;28;20050;-65
2022/10/18 11:22:42;;;;;;;20.60;18.02;;;;;;;;;;6227375;28;20187;-65
2022/10/18 11:26:03;;;;;;;19.75;17.70;;;;;;;;;;6224619;28;20286;-65
2022/10/18 11:29:34;;;;;;;22.42;20.05;;;;;;;;;;6227367;28;20310;-64
2022/10/18 11:32:42;;;;;;;25.97;20.17;;;;;;;;;;6217644;28;20131;-66
2022/10/18 11:35:46;;;;;;;16.50;14.82;;;;;;;;;;6227008;28;20295;-65
2022/10/18 11:38:53;;;;;;;24.60;18.92;;;;;;;;;;6222649;28;20054;-65
2022/10/18 11:41:59;;;;;;;21.08;16.83;;;;;;;;;;6229110;28;20065;-66
2022/10/18 11:45:09;;;;;;;21.67;18.25;;;;;;;;;;6229488;28;20053;-65
2022/10/18 11:48:23;;;;;;;14.38;12.93;;;;;;;;;;6224551;28;20042;-65
2022/10/18 11:51:30;;;;;;;14.55;12.50;;;;;;;;;;6229119;28;20318;-66
2022/10/18 11:54:43;;;;;;;18.30;15.88;;;;;;;;;;6228586;28;20053;-66
2022/10/18 11:57:51;;;;;;;15.38;13.77;;;;;;;;;;6227953;28;20091;-65
2022/10/18 12:00:57;;;;;;;21.92;17.90;;;;;;;;;;6227956;28;20180;-65
2022/10/18 12:04:03;;;;;;;12.38;11.10;;;;;;;;;;6230183;28;20148;-65
2022/10/18 12:07:06;;;;;;;15.38;13.38;;;;;;;;;;6231700;28;20321;-66
2022/10/18 12:10:14;;;;;;;22.63;18.92;;;;;;;;;;6228110;28;20121;-65
2022/10/18 12:13:29;;;;;;;13.80;11.88;;;;;;;;;;6230036;28;20165;-66
2022/10/18 12:16:35;;;;;;;19.70;16.10;;;;;;;;;;6228538;28;20092;-65
2022/10/18 12:19:37;;;;;;;13.75;12.30;;;;;;;;;;6229325;28;20084;-66
2022/10/18 12:22:41;;;;;;;22.98;20.65;;;;;;;;;;6229724;28;20140;-66
2022/10/18 12:25:46;;;;;;;14.30;12.85;;;;;;;;;;6228836;28;20065;-65
2022/10/18 12:28:56;;;;;;;18.17;15.48;;;;;;;;;;6230186;28;20061;-66
2022/10/18 12:32:03;;;;;;;20.50;18.30;;;;;;;;;;6229114;28;20368;-65
2022/10/18 12:35:09;;;;;;;17.55;15.07;;;;;;;;;;6230590;28;20058;-65
2022/10/18 12:38:17;;;;;;;18.75;16.58;;;;;;;;;;6230248;28;20093;-65
2022/10/18 12:41:21;;;;;;;21.40;18.52;;;;;;;;;;6230950;28;20053;-64
2022/10/18 12:44:29;;;;;;;24.95;21.00;;;;;;;;;;6230141;28;20470;-65
2022/10/18 12:47:32;;;;;;;17.30;13.38;;;;;;;;;;6228660;28;20071;-65
2022/10/18 12:50:36;;;;;;;21.70;19.20;;;;;;;;;;6228678;28;20112;-65
2022/10/18 12:53:38;;;;;;;21.98;19.67;;;;;;;;;;6230025;28;20179;-65
2022/10/18 12:56:40;;;;;;;;;;;;;;;;;;6228919;28;20053;-65
2022/10/18 12:59:42;;;;;;;18.42;14.55;;;;;;;;;;6229268;28;20177;-66
2022/10/18 13:02:45;;;;;;;13.95;12.40;;;;;;;;;;6227089;28;20207;-65
2022/10/18 13:05:55;;;;;;;14.88;12.48;;;;;;;;;;6229799;28;20053;-65
2022/10/18 13:09:17;;;;;;;12.00;9.27;;;;;;;;;;6229093;28;20276;-66
2022/10/18 13:12:56;;;;;;;12.82;10.57;;;;;;;;;;6230635;28;20054;-63
2022/10/18 13:16:05;;;;;;;20.15;14.98;;;;;;;;;;6230027;28;20095;-66
2022/10/18 13:19:18;;;;;;;10.93;8.90;;;;;;;;;;6228520;28;20057;-65
2022/10/18 13:22:42;;;;;;;20.20;15.60;;;;;;;;;;6229859;28;20725;-65
2022/10/18 13:25:54;;;;;;;13.85;11.63;;;;;;;;;;6228480;28;20092;-65
2022/10/18 13:29:00;;;;;;;12.50;9.05;;;;;;;;;;6229988;28;20125;-65
2022/10/18 13:32:05;;;;;;;13.15;11.43;;;;;;;;;;6226406;28;20233;-65
2022/10/18 13:35:41;;;;;;;15.63;13.02;;;;;;;;;;6228403;28;20053;-65
2022/10/18 13:38:47;;;;;;;13.23;10.63;;;;;;;;;;6228943;28;20065;-63
2022/10/18 13:42:20;;;;;;;20.58;13.85;;;;;;;;;;6228871;28;20045;-65
2022/10/18 13:45:45;;;;;;;16.25;14.55;;;;;;;;;;6221915;28;20401;-64
2022/10/18 13:48:48;;;;;;;12.70;10.38;;;;;;;;;;6227773;28;20065;-64
2022/10/18 13:51:56;;;;;;;17.60;15.23;;;;;;;;;;6227539;28;20049;-65
2022/10/18 13:55:14;;;;;;;15.25;12.18;;;;;;;;;;6226867;28;20223;-63
2022/10/18 13:58:20;;;;;;;12.80;11.02;;;;;;;;;;6227719;28;20100;-65
2022/10/18 14:01:30;;;;;;;10.55;8.35;;;;;;;;;;6229713;28;20241;-65
2022/10/18 14:04:43;;;;;;;13.73;12.30;;;;;;;;;;6227373;28;20057;-65
2022/10/18 14:07:44;;;;;;;10.02;8.75;;;;;;;;;;6227369;28;20054;-65
2022/10/18 14:10:54;;;;;;;15.10;11.57;;;;;;;;;;6226977;28;20148;-65
2022/10/18 14:13:57;;;;;;;13.38;11.60;;;;;;;;;;6227342;28;20345;-65
2022/10/18 14:17:04;;;;;;;21.60;15.55;;;;;;;;;;6229073;28;20038;-65
2022/10/18 14:20:17;;;;;;;16.98;12.80;;;;;;;;;;6227297;28;20131;-68
2022/10/18 14:23:20;;;;;;;14.25;11.50;;;;;;;;;;6227166;28;20130;-65
2022/10/18 14:26:23;;;;;;;18.05;14.70;;;;;;;;;;6225484;28;20290;-64
2022/10/18 14:29:24;;;;;;;15.98;13.07;;;;;;;;;;6226263;28;20111;-66
2022/10/18 14:32:28;;;;;;;14.30;12.10;;;;;;;;;;6226128;28;20096;-65
2022/10/18 14:35:31;;;;;;;25.48;17.55;;;;;;;;;;6227101;28;20065;-66
2022/10/18 14:38:35;;;;;;;21.27;17.38;;;;;;;;;;6226283;28;20092;-66
2022/10/18 14:41:40;;;;;;;16.90;14.90;;;;;;;;;;6226242;28;20081;-67
2022/10/18 14:44:41;;;;;;;15.57;13.50;;;;;;;;;;6224730;28;20057;-66
2022/10/18 14:47:45;;;;;;;21.13;15.00;;;;;;;;;;6226847;28;20360;-64
2022/10/18 14:50:49;;;;;;;18.98;16.45;;;;;;;;;;6227642;28;20180;-64
2022/10/18 14:53:51;;;;;;;27.63;16.92;;;;;;;;;;6225393;28;20049;-66
2022/10/18 14:56:54;;;;;;;23.30;17.58;;;;;;;;;;6226795;28;20092;-66
2022/10/18 15:00:00;;;;;;;18.58;14.25;;;;;;;;;;6226196;28;20103;-65
2022/10/18 15:03:03;;;;;;;22.23;17.83;;;;;;;;;;6229819;28;20064;-65
2022/10/18 15:06:07;;;;;;;19.10;13.80;;;;;;;;;;6226230;28;20050;-66
2022/10/18 15:09:10;;;;;;;20.88;13.85;;;;;;;;;;6226529;28;20041;-65
2022/10/18 15:12:15;;;;;;;23.00;15.68;;;;;;;;;;6227418;28;20073;-65
2022/10/18 15:15:20;;;;;;;15.07;11.00;;;;;;;;;;6227088;28;20428;-66
2022/10/18 15:18:23;;;;;;;19.58;15.98;;;;;;;;;;6226368;28;20065;-66
2022/10/18 15:21:25;;;;;;;21.95;14.77;;;;;;;;;;6225558;28;20407;-67
2022/10/18 15:24:33;;;;;;;20.08;15.68;;;;;;;;;;6225393;28;20061;-66
2022/10/18 15:27:38;;;;;;;19.98;14.70;;;;;;;;;;6224955;28;20062;-65
2022/10/18 15:30:41;;;;;;;18.00;11.50;;;;;;;;;;6225045;28;20045;-64
2022/10/18 15:33:43;;;;;;;31.42;17.30;;;;;;;;;;6226329;28;20400;-67
2022/10/18 15:36:45;;;;;;;23.23;15.80;;;;;;;;;;6225544;28;20186;-66
2022/10/18 15:39:46;;;;;;;23.80;16.85;;;;;;;;;;6224191;28;20226;-63
2022/10/18 15:42:50;;;;;;;21.25;16.33;;;;;;;;;;6225811;28;20317;-66
2022/10/18 15:45:54;;;;;;;22.05;15.73;;;;;;;;;;6225102;28;20291;-65
2022/10/18 15:49:09;;;;;;;20.40;15.77;;;;;;;;;;6223907;28;20176;-65
2022/10/18 15:52:36;;;;;;;19.27;12.98;;;;;;;;;;6223826;28;20042;-66
2022/10/18 15:55:46;;;;;;;20.95;14.75;;;;;;;;;;6209238;28;20057;-66
2022/10/18 15:58:50;;;;;;;18.08;12.77;;;;;;;;;;6224553;28;20069;-66
2022/10/18 16:01:52;;;;;;;23.83;16.17;;;;;;;;;;6223343;28;20075;-64
2022/10/18 16:04:53;;;;;;;21.02;14.65;;;;;;;;;;6225719;28;20068;-66
2022/10/18 16:07:55;;;;;;;21.73;16.02;;;;;;;;;;6224912;28;20245;-66
2022/10/18 16:10:57;;;;;;;25.60;17.25;;;;;;;;;;6223335;28;20108;-66
2022/10/18 16:14:00;;;;;;;25.43;18.27;;;;;;;;;;6225579;28;20053;-66
2022/10/18 16:17:03;;;;;;;;;;;;;;;;;;6225023;28;20065;-64
2022/10/18 16:20:05;;;;;;;29.15;19.35;;;;;;;;;;6223673;28;19932;-66
2022/10/18 16:23:17;;;;;;;25.10;19.38;;;;;;;;;;6224141;28;20053;-65
2022/10/18 16:26:20;;;;;;;25.42;17.98;;;;;;;;;;6223036;28;20057;-64
2022/10/18 16:29:25;;;;;;;28.07;18.83;;;;;;;;;;6224869;28;20053;-64
2022/10/18 16:32:27;;;;;;;27.17;19.05;;;;;;;;;;6223739;28;20104;-66
2022/10/18 16:35:29;;;;;;;24.27;18.30;;;;;;;;;;6223354;28;20318;-67
2022/10/18 16:38:32;;;;;;;25.87;18.67;;;;;;;;;;6223783;28;20049;-67
2022/10/18 16:41:34;;;;;;;;;;;;;;;;;;6232216;28;20057;-68
2022/10/18 16:44:37;;;;;;;27.73;18.23;;;;;;;;;;6231293;28;19925;-66
2022/10/18 16:47:39;;;;;;;31.38;19.67;;;;;;;;;;6230171;28;20058;-67
2022/10/18 16:50:40;;;;;;;27.13;18.10;;;;;;;;;;6227291;28;20313;-65
2022/10/18 16:53:42;;;;;;;31.80;20.20;;;;;;;;;;6229060;28;20100;-67
2022/10/18 16:56:46;;;;;;;30.98;21.15;;;;;;;;;;6228007;28;20057;-66
2022/10/18 16:59:49;;;;;;;29.70;20.60;;;;;;;;;;6227481;28;20057;-65
2022/10/18 17:02:51;;;;;;;35.67;20.27;;;;;;;;;;6206654;28;20329;-67
2022/10/18 17:05:53;;;;;;;30.13;19.17;;;;;;;;;;6205567;28;20057;-67
2022/10/18 17:08:55;;;;;;;31.87;20.90;;;;;;;;;;6203033;28;20105;-65
2022/10/18 17:11:57;;;;;;;28.03;19.00;;;;;;;;;;6209505;28;20100;-65
2022/10/18 17:15:00;;;;;;;31.52;20.50;;;;;;;;;;6205830;28;20380;-65
2022/10/18 17:18:02;;;;;;;31.55;21.05;;;;;;;;;;6204257;28;20356;-65
2022/10/18 17:21:04;;;;;;;28.60;20.67;;;;;;;;;;6203149;28;20070;-63
2022/10/18 17:24:06;;;;;;;32.40;20.17;;;;;;;;;;6204226;28;20132;-62
2022/10/18 17:27:08;;;;;;;28.33;20.63;;;;;;;;;;6204740;28;20330;-64
2022/10/18 17:30:13;;;;;;;31.15;19.70;;;;;;;;;;6202908;28;20116;-60
2022/10/18 17:33:15;;;;;;;35.95;22.13;;;;;;;;;;6204271;28;20104;-62
2022/10/18 17:36:16;;;;;;;32.45;19.25;;;;;;;;;;6204720;28;20200;-62
2022/10/18 17:39:18;;;;;;;28.27;21.00;;;;;;;;;;6204334;28;20063;-61
2022/10/18 17:42:20;;;;;;;31.13;20.58;;;;;;;;;;6201434;28;20141;-60
2022/10/18 17:45:23;;;;;;;30.70;21.37;;;;;;;;;;6205051;28;20050;-61
2022/10/18 17:48:27;;;;;;;35.35;21.30;;;;;;;;;;6204610;28;20341;-61
2022/10/18 17:51:28;;;;;;;31.75;22.92;;;;;;;;;;6202980;28;20057;-61
2022/10/18 17:54:30;;;;;;;33.65;24.63;;;;;;;;;;6204052;28;20086;-61
2022/10/18 17:57:31;;;;;;;37.70;25.95;;;;;;;;;;6203850;28;20050;-62